Time;durP1;ratioP1;P1;durP2;ratioP2;P2;SDS_P1;SDS_P2;PMS_P1;PMS_P2;Temp;Humidity;BMP_temperature;BMP_pressure;BME280_temperature;BME280_humidity;BME280_pressure;Samples;Min_cycle;Max_cycle;Signal;HPM_P1;HPM_P2
2024/02/12 00:01:58;;;;;;;2.83;1.53;;;7.80;99.90;7.70;98476.00;;;;4934132;28;108830;-69
2024/02/12 00:04:26;;;;;;;3.43;1.73;;;7.80;99.90;7.70;98467.00;;;;4931902;28;88948;-70
2024/02/12 00:06:56;;;;;;;1.50;1.40;;;7.80;99.90;7.70;98464.00;;;;4935598;28;89531;-70
2024/02/12 00:09:25;;;;;;;3.10;2.13;;;7.80;99.90;7.70;98474.00;;;;4931474;28;87856;-72
2024/02/12 00:11:51;;;;;;;3.03;1.80;;;7.80;99.90;7.70;98472.00;;;;4930420;28;88067;-72
2024/02/12 00:14:17;;;;;;;2.53;2.00;;;7.80;99.90;7.70;98488.00;;;;4932918;28;116432;-71
2024/02/12 00:16:45;;;;;;;4.13;2.47;;;7.90;99.90;7.70;98480.00;;;;4930369;28;97474;-69
2024/02/12 00:19:15;;;;;;;1.90;1.73;;;7.90;99.90;7.80;98482.00;;;;4931526;28;87917;-70
2024/02/12 00:21:42;;;;;;;5.23;2.90;;;7.90;99.90;7.80;98475.00;;;;4937927;28;87370;-71
2024/02/12 00:24:09;;;;;;;4.47;2.13;;;7.90;99.90;7.80;98483.00;;;;4934883;28;88147;-71
2024/02/12 00:26:35;;;;;;;6.33;2.90;;;7.90;99.90;7.80;98479.00;;;;4932948;28;87991;-74
2024/02/12 00:29:01;;;;;;;4.63;2.50;;;7.90;99.90;7.80;98488.00;;;;4928566;28;109988;-73
2024/02/12 00:31:27;;;;;;;3.57;2.30;;;8.00;99.90;7.90;98487.00;;;;4929792;28;89374;-69
2024/02/12 00:33:54;;;;;;;2.77;2.23;;;8.00;99.90;7.90;98477.00;;;;4927148;28;118864;-70
2024/02/12 00:36:20;;;;;;;4.57;2.30;;;8.00;99.90;7.90;98492.00;;;;4928019;28;88836;-69
2024/02/12 00:38:47;;;;;;;3.07;2.60;;;8.00;99.90;7.90;98489.00;;;;4933727;28;98286;-71
2024/02/12 00:41:14;;;;;;;4.17;3.10;;;8.00;99.90;7.90;98488.00;;;;4930531;28;88661;-71
2024/02/12 00:43:43;;;;;;;5.10;2.93;;;8.00;99.90;8.00;98494.00;;;;4932397;28;88967;-71
2024/02/12 00:46:10;;;;;;;5.00;3.30;;;8.10;99.90;8.00;98496.00;;;;4942988;28;87599;-71
2024/02/12 00:48:36;;;;;;;3.83;3.27;;;8.10;99.90;8.00;98500.00;;;;4930298;28;88045;-72
2024/02/12 00:51:02;;;;;;;8.23;3.23;;;8.10;99.90;8.00;98499.00;;;;4935367;28;88866;-69
2024/02/12 00:53:28;;;;;;;7.60;3.33;;;8.10;99.90;8.00;98507.00;;;;4930551;28;104655;-71
2024/02/12 00:55:55;;;;;;;5.17;3.57;;;8.10;99.90;8.00;98506.00;;;;4930787;28;89644;-71
2024/02/12 00:58:22;;;;;;;3.73;2.97;;;8.10;99.90;8.00;98496.00;;;;4932116;28;87712;-72
2024/02/12 01:00:49;;;;;;;6.30;3.57;;;8.20;99.90;8.00;98507.00;;;;4930770;28;87864;-72
2024/02/12 01:03:18;;;;;;;5.77;3.33;;;8.20;99.90;8.00;98499.00;;;;4927962;28;87921;-71
2024/02/12 01:05:44;;;;;;;4.57;2.90;;;8.10;99.90;8.00;98511.00;;;;4932356;28;89170;-69
2024/02/12 01:08:10;;;;;;;4.20;3.20;;;8.10;99.90;8.00;98514.00;;;;4930485;28;87976;-72
2024/02/12 01:10:36;;;;;;;6.23;3.50;;;8.10;99.90;8.00;98504.00;;;;4927852;28;106650;-72
2024/02/12 01:13:02;;;;;;;3.47;2.50;;;8.10;99.90;8.00;98515.00;;;;4926017;28;88094;-71
2024/02/12 01:15:27;;;;;;;3.77;2.57;;;8.10;99.90;8.00;98509.00;;;;4928208;28;108722;-69
2024/02/12 01:17:57;;;;;;;5.03;3.47;;;8.80;99.90;8.00;98509.00;;;;4926984;28;88840;-69
2024/02/12 01:20:23;;;;;;;4.40;3.33;;;8.10;99.90;8.00;98510.00;;;;4929730;28;87943;-68
2024/02/12 01:22:52;;;;;;;7.30;2.57;;;8.10;99.90;8.00;98520.00;;;;4923058;28;96970;-70
2024/02/12 01:25:18;;;;;;;3.50;2.93;;;8.10;99.90;8.00;98513.00;;;;4924038;28;116296;-70
2024/02/12 01:27:45;;;;;;;3.87;2.80;;;8.10;99.90;8.00;98514.00;;;;4933709;28;88602;-68
2024/02/12 01:30:13;;;;;;;2.90;1.90;;;8.10;99.90;7.90;98518.00;;;;4930681;28;88229;-69
2024/02/12 01:32:44;;;;;;;4.17;2.63;;;8.10;99.90;7.90;98508.00;;;;4935249;28;88572;-70
2024/02/12 01:35:11;;;;;;;2.33;2.07;;;8.10;99.90;7.90;98515.00;;;;4933158;28;116173;-68
2024/02/12 01:37:36;;;;;;;6.70;2.43;;;8.00;99.90;7.90;98513.00;;;;4929782;28;87878;-72
2024/02/12 01:40:02;;;;;;;3.07;2.30;;;8.00;99.90;7.90;98517.00;;;;4946024;28;109652;-71
2024/02/12 01:42:28;;;;;;;3.73;2.30;;;8.00;99.90;7.90;98518.00;;;;4933878;28;95378;-70
2024/02/12 01:45:13;;;;;;;4.60;3.47;;;8.10;99.90;7.90;98516.00;;;;4924527;28;117338;-71
2024/02/12 01:47:41;;;;;;;3.53;2.33;;;8.10;99.90;7.90;98519.00;;;;4916506;28;87933;-72
2024/02/12 01:50:10;;;;;;;3.07;2.37;;;8.00;99.90;7.90;98509.00;;;;4930286;28;87764;-71
2024/02/12 01:52:36;;;;;;;4.63;2.47;;;8.00;99.90;7.80;98509.00;;;;4930945;28;88284;-71
2024/02/12 01:55:02;;;;;;;3.67;2.97;;;7.90;99.90;7.80;98516.00;;;;4945669;28;89096;-71
2024/02/12 01:57:30;;;;;;;3.07;2.23;;;8.00;99.90;7.80;98509.00;;;;4931711;28;91677;-70
2024/02/12 01:59:57;;;;;;;4.23;2.13;;;8.00;99.90;7.80;98516.00;;;;4936589;28;87013;-72
2024/02/12 02:02:24;;;;;;;4.33;2.47;;;8.00;99.90;7.80;98510.00;;;;4944762;28;87729;-71
2024/02/12 02:04:50;;;;;;;2.30;1.70;;;7.90;99.90;7.80;98518.00;;;;4932895;28;88710;-72
2024/02/12 02:07:19;;;;;;;5.23;2.83;;;7.90;99.90;7.80;98514.00;;;;4929040;28;109270;-70
2024/02/12 02:09:50;;;;;;;5.60;2.70;;;7.90;99.90;7.80;98525.00;;;;4943927;28;87924;-70
2024/02/12 02:12:16;;;;;;;2.57;1.60;;;7.90;99.90;7.80;98508.00;;;;4933651;28;88803;-71
2024/02/12 02:14:44;;;;;;;4.03;2.23;;;7.90;99.90;7.80;98522.00;;;;4933472;28;88144;-70
2024/02/12 02:17:10;;;;;;;5.47;2.43;;;7.90;99.90;7.80;98531.00;;;;4929407;28;90315;-70
2024/02/12 02:19:38;;;;;;;2.33;2.13;;;7.90;99.90;7.80;98531.00;;;;4930561;28;107650;-71
2024/02/12 02:22:04;;;;;;;2.77;2.27;;;7.90;99.90;7.80;98514.00;;;;4931664;28;88237;-71
2024/02/12 02:24:30;;;;;;;4.73;2.23;;;8.10;99.90;7.80;98522.00;;;;4935073;28;95971;-71
2024/02/12 02:26:55;;;;;;;2.97;2.13;;;7.90;99.90;7.80;98527.00;;;;4932094;28;110488;-72
2024/02/12 02:29:21;;;;;;;5.33;2.30;;;7.90;99.90;7.80;98530.00;;;;4933936;28;109115;-71
2024/02/12 02:31:47;;;;;;;3.63;2.50;;;7.90;99.90;7.80;98531.00;;;;4925774;28;118147;-73
2024/02/12 02:34:13;;;;;;;3.07;2.10;;;7.90;99.90;7.80;98534.00;;;;4932782;28;118508;-72
2024/02/12 02:36:46;;;;;;;3.80;2.50;;;7.90;99.90;7.80;98534.00;;;;4933208;28;88096;-72
2024/02/12 02:39:13;;;;;;;2.10;1.90;;;7.90;99.90;7.80;98531.00;;;;4935592;28;87991;-71
2024/02/12 02:41:45;;;;;;;3.87;2.53;;;7.90;99.90;7.80;98536.00;;;;4937926;28;88296;-72
2024/02/12 02:44:13;;;;;;;2.53;1.80;;;7.90;99.90;7.80;98540.00;;;;4932643;28;88380;-70
2024/02/12 02:46:39;;;;;;;3.13;2.27;;;7.80;99.90;7.80;98538.00;;;;4931253;28;87828;-71
2024/02/12 02:49:04;;;;;;;4.07;2.43;;;7.90;99.90;7.80;98536.00;;;;4933383;28;98371;-70
2024/02/12 02:51:30;;;;;;;5.07;2.53;;;7.80;99.90;7.70;98539.00;;;;4932139;28;117572;-70
2024/02/12 02:53:56;;;;;;;2.17;1.97;;;7.90;99.90;7.70;98539.00;;;;4932195;28;87807;-70
2024/02/12 02:56:23;;;;;;;2.50;2.03;;;7.90;99.90;7.70;98534.00;;;;4937130;28;89504;-73
2024/02/12 02:58:52;;;;;;;2.70;1.90;;;7.90;99.90;7.70;98535.00;;;;4943334;28;87891;-73
2024/02/12 03:01:20;;;;;;;2.43;1.70;;;7.90;99.90;7.70;98544.00;;;;4928848;28;117500;-72
2024/02/12 03:03:50;;;;;;;2.60;1.63;;;7.80;99.90;7.70;98544.00;;;;4931086;28;88968;-70
2024/02/12 03:06:21;;;;;;;2.67;2.03;;;7.90;99.90;7.70;98544.00;;;;4931099;28;88315;-70
2024/02/12 03:08:50;;;;;;;2.90;2.33;;;7.90;99.90;7.70;98547.00;;;;4932631;28;87807;-72
2024/02/12 03:11:22;;;;;;;3.30;2.37;;;7.80;99.90;7.70;98544.00;;;;4935057;28;88560;-73
2024/02/12 03:13:50;;;;;;;2.67;2.30;;;7.90;99.90;7.70;98548.00;;;;4932235;28;88997;-72
2024/02/12 03:16:19;;;;;;;3.20;2.10;;;7.90;99.90;7.70;98547.00;;;;4929279;28;87753;-73
2024/02/12 03:18:48;;;;;;;1.77;1.50;;;7.90;99.90;7.70;98556.00;;;;4929852;28;87981;-73
2024/02/12 03:21:20;;;;;;;3.30;2.00;;;7.90;99.90;7.70;98556.00;;;;4929650;28;88980;-73
2024/02/12 03:23:47;;;;;;;2.73;1.90;;;7.90;99.90;7.80;98551.00;;;;4930562;28;89868;-73
2024/02/12 03:26:14;;;;;;;2.57;1.90;;;7.90;99.90;7.80;98562.00;;;;4932681;28;88247;-73
2024/02/12 03:28:39;;;;;;;2.70;1.83;;;7.90;99.90;7.80;98560.00;;;;4929825;28;94792;-73
2024/02/12 03:31:05;;;;;;;4.40;1.80;;;7.90;99.90;7.80;98562.00;;;;4928858;28;117925;-73
2024/02/12 03:33:31;;;;;;;4.60;1.97;;;7.90;99.90;7.80;98556.00;;;;4929986;28;115997;-73
2024/02/12 03:35:57;;;;;;;3.00;2.00;;;7.80;99.90;7.80;98559.00;;;;4938607;28;87739;-73
2024/02/12 03:38:24;;;;;;;2.67;1.87;;;8.00;99.90;7.80;98569.00;;;;4928702;28;108457;-73
2024/02/12 03:40:54;;;;;;;1.77;1.47;;;8.00;99.90;7.80;98574.00;;;;4932335;28;87929;-73
2024/02/12 03:43:24;;;;;;;2.17;1.63;;;7.90;99.90;7.80;98573.00;;;;4930540;28;88513;-72
2024/02/12 03:45:52;;;;;;;4.13;2.30;;;7.90;99.90;7.80;98571.00;;;;4928726;28;88785;-71
2024/02/12 04:02:01;;;;;;;2.33;1.93;;;7.90;99.90;7.80;98581.00;;;;4929529;28;87836;-71
2024/02/12 04:04:27;;;;;;;2.63;2.33;;;8.00;99.90;7.80;98580.00;;;;4935289;28;88773;-71
2024/02/12 04:06:52;;;;;;;3.33;1.30;;;7.90;99.90;7.80;98587.00;;;;4932439;28;109003;-71
2024/02/12 04:09:18;;;;;;;2.00;1.80;;;8.00;99.90;7.80;98584.00;;;;4926316;28;109308;-71
2024/02/12 04:11:44;;;;;;;2.10;1.47;;;8.10;99.90;7.80;98593.00;;;;4931306;28;93552;-72
2024/02/12 04:14:09;;;;;;;3.67;2.03;;;8.00;99.90;7.80;98593.00;;;;4927174;28;117985;-72
2024/02/12 04:16:36;;;;;;;2.00;1.80;;;8.00;99.90;7.80;98586.00;;;;4929791;28;110638;-72
2024/02/12 04:19:10;;;;;;;3.10;1.93;;;8.00;99.90;7.80;98594.00;;;;4946075;28;87883;-71
2024/02/12 04:21:40;;;;;;;2.50;2.17;;;8.60;99.90;7.80;98588.00;;;;4930875;28;88848;-71
2024/02/12 04:24:06;;;;;;;2.90;1.60;;;8.00;99.90;7.80;98595.00;;;;4930303;28;87920;-72
2024/02/12 04:26:32;;;;;;;2.93;2.13;;;8.00;99.90;7.90;98603.00;;;;4933543;28;87709;-71
2024/02/12 04:28:58;;;;;;;1.67;1.20;;;8.00;99.90;7.90;98596.00;;;;4930365;28;107703;-72
2024/02/12 04:31:26;;;;;;;1.50;1.40;;;8.00;99.90;7.90;98599.00;;;;4926057;28;88193;-72
2024/02/12 04:33:53;;;;;;;2.47;1.77;;;8.00;99.90;7.90;98609.00;;;;4930457;28;88147;-72
2024/02/12 04:36:19;;;;;;;1.93;1.33;;;8.00;99.90;7.90;98610.00;;;;4932451;28;88886;-72
2024/02/12 04:38:45;;;;;;;1.60;1.37;;;8.00;99.90;7.90;98614.00;;;;4931904;28;100091;-72
2024/02/12 04:41:12;;;;;;;2.60;1.97;;;8.30;99.90;7.90;98609.00;;;;4926495;28;89186;-73
2024/02/12 04:43:38;;;;;;;2.77;1.80;;;8.00;99.90;7.90;98622.00;;;;4931897;28;88965;-71
2024/02/12 04:46:04;;;;;;;2.27;1.70;;;8.00;99.90;7.90;98621.00;;;;4929489;28;88176;-70
2024/02/12 04:48:31;;;;;;;2.83;1.80;;;8.10;99.90;7.90;98617.00;;;;4932444;28;108664;-72
2024/02/12 04:50:56;;;;;;;2.10;1.53;;;8.10;99.90;7.90;98621.00;;;;4931349;28;88950;-72
2024/02/12 04:53:22;;;;;;;1.70;1.60;;;8.10;99.90;7.90;98626.00;;;;4931856;28;101946;-71
2024/02/12 04:55:48;;;;;;;3.20;1.97;;;8.10;99.90;7.90;98636.00;;;;4931160;28;88067;-71
2024/02/12 04:58:14;;;;;;;2.10;1.53;;;8.10;99.90;7.90;98632.00;;;;4905330;28;106705;-73
2024/02/12 05:00:39;;;;;;;2.23;1.23;;;8.10;99.90;7.90;98636.00;;;;4911906;28;115875;-73
2024/02/12 05:03:07;;;;;;;1.47;1.10;;;8.10;99.90;7.90;98634.00;;;;4910093;28;119232;-71
2024/02/12 05:05:33;;;;;;;4.20;1.80;;;8.10;99.90;7.90;98653.00;;;;4906510;28;87593;-71
2024/02/12 05:08:03;;;;;;;4.40;2.30;;;8.10;99.90;8.00;98641.00;;;;4908746;28;100436;-73
2024/02/12 05:10:30;;;;;;;3.10;0.93;;;8.10;99.90;8.00;98657.00;;;;4913671;28;88611;-74
2024/02/12 05:12:56;;;;;;;3.00;1.13;;;8.00;99.90;8.00;98642.00;;;;4911064;28;100303;-72
2024/02/12 05:15:23;;;;;;;2.77;1.33;;;8.10;99.90;8.00;98647.00;;;;4929475;28;88190;-71
2024/02/12 05:17:55;;;;;;;2.10;1.73;;;8.10;99.90;8.00;98654.00;;;;4931492;28;87341;-72
2024/02/12 05:23:09;;;;;;;2.50;1.37;;;8.10;99.90;8.00;98659.00;;;;4928156;28;88104;-75
2024/02/12 05:25:35;;;;;;;1.23;1.17;;;8.10;99.90;8.00;98658.00;;;;4935045;28;88826;-74
2024/02/12 05:28:01;;;;;;;2.10;1.53;;;8.10;99.90;8.00;98650.00;;;;4929717;28;87871;-74
2024/02/12 05:30:27;;;;;;;1.40;1.30;;;8.10;99.90;8.00;98656.00;;;;4927450;28;117066;-73
2024/02/12 05:32:52;;;;;;;3.73;1.80;;;8.10;99.90;8.00;98658.00;;;;4934301;28;97330;-72
2024/02/12 05:35:18;;;;;;;1.63;1.33;;;8.10;99.90;8.00;98664.00;;;;4935014;28;88113;-73
2024/02/12 05:37:44;;;;;;;5.33;1.83;;;8.10;99.90;8.00;98664.00;;;;4928184;28;106206;-71
2024/02/12 05:40:11;;;;;;;1.17;1.07;;;8.20;99.90;8.00;98660.00;;;;4929520;28;89181;-73
2024/02/12 05:42:37;;;;;;;1.53;1.20;;;8.10;99.90;8.00;98669.00;;;;4945949;28;87408;-71
2024/02/12 05:45:04;;;;;;;3.43;1.30;;;8.20;99.90;8.00;98671.00;;;;4933395;28;88288;-72
2024/02/12 05:47:30;;;;;;;1.67;0.97;;;8.10;99.90;8.00;98670.00;;;;4943770;28;87800;-72
2024/02/12 05:49:56;;;;;;;2.07;1.50;;;8.10;99.90;8.00;98665.00;;;;4928470;28;108394;-71
2024/02/12 05:52:22;;;;;;;1.27;1.17;;;8.10;99.90;8.00;98670.00;;;;4934700;28;87837;-70
2024/02/12 05:54:47;;;;;;;1.77;1.47;;;8.10;99.90;8.00;98680.00;;;;4930889;28;103122;-73
2024/02/12 05:57:13;;;;;;;4.03;1.80;;;8.10;99.90;8.00;98673.00;;;;4929742;28;108839;-71
2024/02/12 05:59:39;;;;;;;1.47;1.10;;;8.10;99.90;7.90;98676.00;;;;4942832;28;89003;-72
2024/02/12 06:02:05;;;;;;;1.57;1.47;;;8.00;99.90;7.90;98682.00;;;;4937310;28;115745;-72
2024/02/12 06:04:31;;;;;;;2.30;1.23;;;8.00;99.90;7.90;98689.00;;;;4932213;28;95164;-70
2024/02/12 06:06:58;;;;;;;2.97;2.10;;;8.00;99.90;7.90;98696.00;;;;4928581;28;87431;-70
2024/02/12 06:09:25;;;;;;;1.77;1.67;;;8.00;99.90;7.90;98694.00;;;;4927002;28;90165;-72
2024/02/12 06:11:51;;;;;;;1.57;1.43;;;7.90;99.90;7.90;98696.00;;;;4930594;28;104217;-71
2024/02/12 06:14:16;;;;;;;2.03;1.70;;;8.00;99.90;7.90;98701.00;;;;4930051;28;89353;-69
2024/02/12 06:16:42;;;;;;;1.60;1.20;;;8.00;99.90;7.80;98705.00;;;;4925895;28;108786;-70
2024/02/12 06:19:08;;;;;;;3.73;1.40;;;7.90;99.90;7.80;98693.00;;;;4933208;28;117491;-69
2024/02/12 06:21:35;;;;;;;5.90;1.40;;;7.90;99.90;7.80;98705.00;;;;4928322;28;119056;-71
2024/02/12 06:24:03;;;;;;;2.10;1.33;;;8.00;99.90;7.80;98705.00;;;;4928816;28;87949;-69
2024/02/12 06:26:29;;;;;;;3.80;1.57;;;7.90;99.90;7.80;98702.00;;;;4930801;28;87688;-69
2024/02/12 06:28:54;;;;;;;1.67;1.30;;;7.90;99.90;7.80;98716.00;;;;4930825;28;88036;-69
2024/02/12 06:31:20;;;;;;;1.63;1.43;;;7.90;99.90;7.80;98711.00;;;;4927887;28;117043;-71
2024/02/12 06:33:46;;;;;;;2.10;1.43;;;7.90;99.90;7.80;98713.00;;;;4930073;28;87947;-70
2024/02/12 06:36:13;;;;;;;1.90;1.10;;;7.90;99.90;7.80;98722.00;;;;4931969;28;105167;-69
2024/02/12 06:38:38;;;;;;;1.43;1.10;;;7.90;99.90;7.80;98725.00;;;;4926929;28;88903;-69
2024/02/12 06:41:05;;;;;;;2.00;0.97;;;7.90;99.90;7.70;98728.00;;;;4932376;28;117848;-71
2024/02/12 06:43:31;;;;;;;1.20;1.10;;;7.90;99.90;7.70;98731.00;;;;4931459;28;87781;-70
2024/02/12 06:45:57;;;;;;;3.40;1.27;;;7.90;99.90;7.70;98734.00;;;;4925312;28;87884;-68
2024/02/12 06:48:23;;;;;;;1.37;1.10;;;7.80;99.90;7.70;98739.00;;;;4927238;28;118108;-68
2024/02/12 06:50:49;;;;;;;2.50;0.93;;;7.90;99.90;7.70;98746.00;;;;4930001;28;88817;-71
2024/02/12 06:53:15;;;;;;;1.83;1.20;;;7.90;99.90;7.70;98755.00;;;;4934361;28;100460;-68
2024/02/12 06:55:41;;;;;;;2.10;1.43;;;7.80;99.90;7.70;98756.00;;;;4931468;28;87032;-69
2024/02/12 06:58:09;;;;;;;1.93;1.10;;;7.80;99.90;7.70;98759.00;;;;4926939;28;88773;-71
2024/02/12 07:00:37;;;;;;;2.30;1.23;;;7.80;99.90;7.70;98764.00;;;;4928924;28;88502;-70
2024/02/12 07:03:04;;;;;;;1.53;1.27;;;8.00;99.90;7.70;98765.00;;;;4928747;28;88971;-69
2024/02/12 07:05:30;;;;;;;1.30;0.83;;;7.80;99.90;7.70;98773.00;;;;4933742;28;88137;-71
2024/02/12 07:07:56;;;;;;;0.77;0.73;;;7.80;99.90;7.70;98767.00;;;;4931723;28;117598;-71
2024/02/12 07:10:23;;;;;;;3.53;1.60;;;7.80;99.90;7.70;98780.00;;;;4932367;28;88314;-69
2024/02/12 07:12:49;;;;;;;1.27;1.17;;;7.90;99.90;7.80;98777.00;;;;4931553;28;87869;-70
2024/02/12 07:15:21;;;;;;;1.57;1.27;;;7.90;99.90;7.80;98794.00;;;;4931562;28;103507;-69
2024/02/12 07:17:47;;;;;;;1.80;1.23;;;7.90;99.90;7.80;98786.00;;;;4936554;28;88218;-69
2024/02/12 07:20:13;;;;;;;1.13;0.77;;;7.90;99.90;7.90;98802.00;;;;4931252;28;87095;-70
2024/02/12 07:22:38;;;;;;;2.43;1.37;;;8.00;99.90;7.90;98803.00;;;;4931488;28;106422;-70
2024/02/12 07:25:05;;;;;;;2.20;1.40;;;8.00;99.90;7.90;98784.00;;;;4933665;28;109088;-70
2024/02/12 07:27:31;;;;;;;1.53;1.43;;;8.10;99.90;7.90;98807.00;;;;4946546;28;92002;-70
2024/02/12 07:29:57;;;;;;;1.20;1.03;;;8.00;99.90;8.00;98810.00;;;;4930989;28;118712;-69
2024/02/12 07:32:23;;;;;;;2.27;1.33;;;6.70;99.90;8.00;98810.00;;;;4928775;28;109619;-69
2024/02/12 07:34:50;;;;;;;2.50;1.40;;;8.10;99.90;8.10;98810.00;;;;4934351;28;107232;-70
2024/02/12 07:37:17;;;;;;;1.90;1.20;;;8.20;99.90;8.10;98811.00;;;;4934641;28;88666;-71
2024/02/12 07:39:43;;;;;;;1.37;0.87;;;8.30;99.90;8.20;98827.00;;;;4930166;28;87816;-69
2024/02/12 07:42:09;;;;;;;2.57;1.13;;;8.30;99.90;8.20;98826.00;;;;4927469;28;111263;-69
2024/02/12 07:44:36;;;;;;;1.30;1.17;;;8.30;99.90;8.20;98828.00;;;;4935265;28;87402;-69
2024/02/12 07:47:03;;;;;;;3.03;1.00;;;8.30;99.90;8.30;98824.00;;;;4929616;28;89864;-71
2024/02/12 07:49:31;;;;;;;2.60;0.80;;;8.40;99.90;8.30;98823.00;;;;4929946;28;87782;-70
2024/02/12 07:51:58;;;;;;;1.63;0.70;;;8.40;99.90;8.30;98826.00;;;;4933852;28;88780;-71
2024/02/12 07:54:24;;;;;;;1.73;1.43;;;8.40;99.90;8.40;98844.00;;;;4932572;28;87693;-69
2024/02/12 07:56:50;;;;;;;1.43;0.97;;;8.40;99.90;8.50;98829.00;;;;4928607;28;118005;-70
2024/02/12 07:59:15;;;;;;;0.80;0.73;;;8.50;99.90;8.50;98846.00;;;;4931998;28;88047;-68
2024/02/12 08:01:41;;;;;;;1.90;1.10;;;8.60;99.90;8.50;98844.00;;;;4926718;28;110778;-71
2024/02/12 08:04:07;;;;;;;1.80;1.13;;;8.60;99.90;8.60;98854.00;;;;4929860;28;88005;-69
2024/02/12 08:06:32;;;;;;;1.43;0.97;;;8.60;99.90;8.60;98857.00;;;;4932795;28;106154;-69
2024/02/12 08:08:58;;;;;;;1.10;0.97;;;8.60;99.90;8.60;98864.00;;;;4931517;28;117073;-69
2024/02/12 08:11:23;;;;;;;1.43;0.77;;;8.70;99.90;8.70;98872.00;;;;4935332;28;110077;-69
2024/02/12 08:13:50;;;;;;;1.47;1.37;;;8.70;99.90;8.70;98861.00;;;;4935226;28;109592;-69
2024/02/12 08:16:16;;;;;;;0.87;0.83;;;8.80;99.90;8.70;98875.00;;;;4931614;28;89358;-70
2024/02/12 08:18:42;;;;;;;1.63;1.13;;;8.70;99.90;8.70;98881.00;;;;4938016;28;89011;-69
2024/02/12 08:21:08;;;;;;;1.00;0.73;;;8.80;99.90;8.80;98881.00;;;;4935150;28;87903;-71
2024/02/12 08:23:34;;;;;;;1.73;0.83;;;8.70;99.90;8.80;98871.00;;;;4931921;28;103348;-71
2024/02/12 08:26:00;;;;;;;1.23;0.83;;;8.90;99.90;8.80;98882.00;;;;4932661;28;88088;-70
2024/02/12 08:28:26;;;;;;;1.77;0.83;;;8.90;99.90;8.80;98880.00;;;;4930074;28;93618;-70
2024/02/12 08:30:51;;;;;;;1.77;1.13;;;8.90;99.90;8.90;98882.00;;;;4936947;28;109981;-69
2024/02/12 08:33:17;;;;;;;0.57;0.57;;;8.90;99.90;8.90;98894.00;;;;4942643;28;108494;-71
2024/02/12 08:35:48;;;;;;;0.43;0.43;;;9.00;99.90;8.90;98890.00;;;;4931350;28;118359;-71
2024/02/12 08:38:14;;;;;;;1.27;1.00;;;9.10;99.90;8.90;98900.00;;;;4928660;28;115529;-69
2024/02/12 08:40:40;;;;;;;0.77;0.77;;;9.00;99.90;8.90;98900.00;;;;4931944;28;108451;-69
2024/02/12 08:43:05;;;;;;;1.53;1.10;;;9.00;99.90;8.90;98902.00;;;;4931624;28;108624;-69
2024/02/12 08:45:31;;;;;;;2.23;0.73;;;9.10;99.90;9.00;98904.00;;;;4931160;28;117691;-69
2024/02/12 08:47:57;;;;;;;0.73;0.70;;;9.80;99.90;9.00;98909.00;;;;4935092;28;88629;-68
2024/02/12 08:50:24;;;;;;;3.23;0.70;;;9.10;99.90;9.00;98903.00;;;;4932390;28;111298;-70
2024/02/12 08:52:49;;;;;;;1.87;1.00;;;9.10;99.90;9.10;98904.00;;;;4934336;28;100581;-70
2024/02/12 08:55:16;;;;;;;1.70;0.70;;;9.20;99.90;9.10;98905.00;;;;4932217;28;88557;-69
2024/02/12 08:57:42;;;;;;;1.20;1.07;;;9.20;99.90;9.10;98917.00;;;;4934508;28;87949;-70
2024/02/12 09:00:10;;;;;;;1.00;0.93;;;9.20;99.90;9.10;98912.00;;;;4932211;28;95969;-71
2024/02/12 09:02:36;;;;;;;1.50;0.80;;;9.20;99.90;9.10;98918.00;;;;4932989;28;88301;-69
2024/02/12 09:05:03;;;;;;;1.73;0.60;;;9.20;99.90;9.20;98926.00;;;;4930022;28;119076;-69
2024/02/12 09:07:29;;;;;;;2.00;1.27;;;9.30;99.90;9.20;98918.00;;;;4932483;28;88429;-71
2024/02/12 09:09:55;;;;;;;0.53;0.53;;;9.30;99.90;9.20;98918.00;;;;4932783;28;88040;-70
2024/02/12 09:12:21;;;;;;;1.70;1.00;;;9.30;99.90;9.20;98930.00;;;;4937026;28;108430;-70
2024/02/12 09:14:47;;;;;;;0.63;0.63;;;9.30;99.90;9.30;98928.00;;;;4934803;28;97404;-71
2024/02/12 09:17:15;;;;;;;3.60;1.10;;;9.40;99.90;9.30;98932.00;;;;4933114;28;110828;-70
2024/02/12 09:19:41;;;;;;;1.43;0.77;;;9.40;99.90;9.40;98930.00;;;;4951094;28;87942;-71
2024/02/12 09:22:09;;;;;;;3.27;0.90;;;9.50;99.90;9.40;98931.00;;;;4934648;28;88468;-69
2024/02/12 09:24:38;;;;;;;0.57;0.50;;;9.50;99.90;9.50;98940.00;;;;4937661;28;88906;-70
2024/02/12 09:27:05;;;;;;;5.27;1.53;;;9.50;99.90;9.50;98949.00;;;;4950126;28;88226;-69
2024/02/12 09:29:31;;;;;;;1.67;1.10;;;9.10;99.90;9.50;98949.00;;;;4933433;28;88809;-70
2024/02/12 09:31:56;;;;;;;1.03;0.83;;;9.60;99.90;9.60;98945.00;;;;4933603;28;104852;-72
2024/02/12 09:34:22;;;;;;;6.90;1.00;;;9.60;99.90;9.60;98952.00;;;;4951798;28;88064;-70
2024/02/12 09:36:48;;;;;;;1.97;1.37;;;9.60;99.90;9.70;98961.00;;;;4936419;28;116951;-71
2024/02/12 09:39:15;;;;;;;1.17;0.77;;;9.70;99.90;9.80;98956.00;;;;4934796;28;90331;-69
2024/02/12 09:41:50;;;;;;;1.60;1.30;;;9.80;99.90;9.90;98952.00;;;;4934363;28;88119;-70
2024/02/12 09:44:23;;;;;;;1.77;1.00;;;10.00;99.90;10.00;98956.00;;;;4932913;28;89242;-70
2024/02/12 09:46:54;;;;;;;1.17;0.90;;;10.00;99.90;10.10;98960.00;;;;4935630;28;88822;-70
2024/02/12 09:49:20;;;;;;;1.40;1.07;;;10.10;99.90;10.20;98960.00;;;;4931153;28;87712;-70
2024/02/12 09:51:49;;;;;;;1.47;1.23;;;10.20;99.90;10.30;98960.00;;;;4930650;28;109546;-71
2024/02/12 09:54:16;;;;;;;1.30;1.10;;;10.30;99.90;10.30;98950.00;;;;4926145;28;90175;-70
2024/02/12 09:56:43;;;;;;;1.10;0.50;;;10.30;99.90;10.30;98959.00;;;;4931634;28;117672;-72
2024/02/12 09:59:09;;;;;;;3.80;1.40;;;10.40;99.90;10.40;98961.00;;;;4948911;28;87902;-74
2024/02/12 10:01:36;;;;;;;1.53;0.83;;;10.40;99.90;10.50;98971.00;;;;4940263;28;87860;-71
2024/02/12 10:04:02;;;;;;;1.40;1.20;;;10.50;99.90;10.50;98975.00;;;;4930956;28;88009;-70
2024/02/12 10:06:28;;;;;;;1.57;1.07;;;10.50;99.90;10.50;98969.00;;;;4932851;28;88848;-71
2024/02/12 10:09:07;;;;;;;2.00;1.00;;;10.50;99.90;10.50;98975.00;;;;4936060;28;100978;-70
2024/02/12 10:11:33;;;;;;;2.50;0.90;;;10.60;99.90;10.50;98974.00;;;;4933288;28;88780;-72
2024/02/12 10:14:04;;;;;;;1.27;1.10;;;10.60;99.90;10.60;98983.00;;;;4932335;28;88901;-70
2024/02/12 10:16:33;;;;;;;2.57;0.90;;;10.60;99.90;10.60;98996.00;;;;4935123;28;87923;-70
2024/02/12 10:18:59;;;;;;;6.83;1.10;;;10.70;99.90;10.70;98988.00;;;;4937196;28;96596;-71
2024/02/12 10:21:26;;;;;;;1.63;1.03;;;10.70;99.90;10.70;98988.00;;;;4934408;28;87845;-71
2024/02/12 10:23:52;;;;;;;1.43;0.90;;;10.70;99.90;10.80;99009.00;;;;4934198;28;88627;-69
2024/02/12 10:26:22;;;;;;;2.73;1.73;;;10.80;99.90;10.80;99002.00;;;;4933176;28;117527;-69
2024/02/12 10:28:55;;;;;;;2.87;1.10;;;10.80;99.90;10.80;99007.00;;;;4935304;28;87719;-70
2024/02/12 10:31:23;;;;;;;0.70;0.70;;;10.90;99.90;10.90;99011.00;;;;4940249;28;87853;-69
2024/02/12 10:33:51;;;;;;;3.77;1.33;;;10.90;99.90;10.80;99007.00;;;;4930331;28;88034;-70
2024/02/12 10:36:18;;;;;;;2.40;1.43;;;10.90;99.90;10.80;99006.00;;;;4930811;28;88009;-71
2024/02/12 10:38:46;;;;;;;1.83;1.37;;;10.90;99.90;10.80;99002.00;;;;4931276;28;87874;-70
2024/02/12 10:41:32;;;;;;;1.20;1.10;;;10.80;99.90;10.60;99004.00;;;;4931222;28;87779;-70
2024/02/12 10:43:58;;;;;;;1.23;1.00;;;10.80;99.90;10.60;99009.00;;;;4935713;28;93474;-72
2024/02/12 10:46:28;;;;;;;5.10;1.00;;;10.70;99.90;10.60;99015.00;;;;4934387;28;89474;-72
2024/02/12 10:48:54;;;;;;;1.67;1.43;;;10.70;99.90;10.50;99005.00;;;;4932101;28;90080;-72
2024/02/12 10:51:23;;;;;;;1.20;0.87;;;10.60;99.90;10.50;99017.00;;;;4947648;28;98155;-71
2024/02/12 10:53:50;;;;;;;0.90;0.70;;;10.60;99.90;10.50;99010.00;;;;4936457;28;88073;-70
2024/02/12 10:56:16;;;;;;;1.33;1.20;;;10.60;99.90;10.40;99022.00;;;;4934892;28;87801;-71
2024/02/12 10:58:44;;;;;;;1.23;1.13;;;10.50;99.90;10.40;99027.00;;;;4948543;28;88045;-70
2024/02/12 11:01:14;;;;;;;1.17;1.03;;;10.50;99.90;10.40;99026.00;;;;4936586;28;100173;-71
2024/02/12 11:03:45;;;;;;;1.43;1.20;;;10.50;99.90;10.40;99017.00;;;;4939452;28;87895;-71
2024/02/12 11:06:11;;;;;;;1.00;0.87;;;10.50;99.90;10.40;99025.00;;;;4941973;28;88080;-73
2024/02/12 11:08:41;;;;;;;2.20;1.17;;;10.50;99.90;10.40;99018.00;;;;4939176;28;88959;-70
2024/02/12 11:11:15;;;;;;;2.63;0.97;;;10.40;99.90;10.40;99029.00;;;;4936710;28;87972;-72
2024/02/12 11:13:44;;;;;;;1.73;1.23;;;10.50;99.90;10.40;99029.00;;;;4936884;28;88124;-71
2024/02/12 11:16:16;;;;;;;1.13;0.90;;;10.40;99.90;10.40;99032.00;;;;4935133;28;88283;-71
2024/02/12 11:18:41;;;;;;;1.80;0.90;;;10.50;99.90;10.50;99021.00;;;;4953606;28;88154;-73
2024/02/12 11:21:09;;;;;;;2.97;1.27;;;10.50;99.90;10.50;99040.00;;;;4941680;28;107792;-71